createdAt,value
2019-02-02T00:03:48.115Z,63.80
2019-02-02T00:07:51.577Z,63.90
2019-02-02T00:11:55.043Z,63.70
2019-02-02T00:15:58.492Z,63.42
2019-02-02T00:20:01.954Z,63.39
2019-02-02T00:24:05.417Z,63.07
2019-02-02T00:28:08.877Z,62.67
2019-02-02T00:32:12.341Z,63.41
2019-02-02T00:36:15.797Z,63.55
2019-02-02T00:40:19.262Z,63.36
2019-02-02T00:44:22.721Z,63.54
2019-02-02T00:48:26.203Z,63.33
2019-02-02T00:52:29.669Z,63.34
2019-02-02T00:56:33.121Z,63.43
2019-02-02T01:00:36.583Z,63.46
2019-02-02T01:04:40.053Z,63.54
2019-02-02T01:08:43.516Z,63.82
2019-02-02T01:12:46.984Z,63.79
2019-02-02T01:16:50.437Z,63.43
2019-02-02T01:20:53.900Z,63.34
2019-02-02T01:24:57.369Z,63.42
2019-02-02T01:29:00.828Z,63.07
2019-02-02T01:33:04.290Z,63.47
2019-02-02T01:37:07.743Z,63.72
2019-02-02T01:41:11.209Z,63.68
2019-02-02T01:45:14.674Z,63.59
2019-02-02T01:49:18.140Z,63.49
2019-02-02T01:53:21.621Z,63.40
2019-02-02T01:57:25.073Z,63.30
2019-02-02T02:01:28.536Z,63.42
2019-02-02T02:05:32.002Z,63.47
2019-02-02T02:09:35.467Z,63.37
2019-02-02T02:13:38.922Z,63.11
2019-02-02T02:17:42.393Z,63.11
2019-02-02T02:21:46.825Z,62.87
2019-02-02T02:25:50.285Z,62.55
2019-02-02T02:29:53.753Z,62.88
2019-02-02T02:33:57.211Z,63.46
2019-02-02T02:38:00.673Z,63.71
2019-02-02T02:42:04.138Z,63.53
2019-02-02T02:46:07.610Z,63.62
2019-02-02T02:50:11.079Z,63.35
2019-02-02T02:54:14.541Z,63.33
2019-02-02T02:58:17.995Z,63.36
2019-02-02T03:02:21.499Z,63.70
2019-02-02T03:06:24.929Z,64.12
2019-02-02T03:10:28.391Z,64.99
2019-02-02T03:14:31.854Z,65.12
2019-02-02T03:18:35.320Z,64.88
2019-02-02T03:22:38.782Z,65.33
2019-02-02T03:26:42.249Z,65.20
2019-02-02T03:30:45.722Z,65.34
2019-02-02T03:34:49.172Z,65.30
2019-02-02T03:38:52.641Z,65.13
2019-02-02T03:42:56.100Z,65.08
2019-02-02T03:46:59.572Z,64.84
2019-02-02T03:51:03.025Z,64.63
2019-02-02T03:55:06.486Z,65.05
2019-02-02T03:59:09.953Z,65.30
2019-02-02T04:03:13.418Z,65.35
2019-02-02T04:07:16.884Z,65.87
2019-02-02T04:11:20.331Z,66.07
2019-02-02T04:15:23.790Z,65.87
2019-02-02T04:19:27.253Z,65.05
2019-02-02T04:23:30.721Z,65.14
2019-02-02T04:27:34.184Z,65.28
2019-02-02T04:31:37.640Z,65.67
2019-02-02T04:35:41.106Z,66.25
2019-02-02T04:39:44.576Z,66.62
2019-02-02T04:43:48.036Z,66.11
2019-02-02T04:47:51.503Z,66.36
2019-02-02T04:51:54.958Z,66.27
2019-02-02T04:55:58.423Z,66.22
2019-02-02T05:00:01.893Z,66.10
2019-02-02T05:04:05.359Z,65.83
2019-02-02T05:08:08.824Z,65.61
2019-02-02T05:12:12.273Z,64.98
2019-02-02T05:16:15.743Z,65.10
2019-02-02T05:20:19.195Z,65.52
2019-02-02T05:24:22.661Z,66.17
2019-02-02T05:28:26.410Z,65.80
2019-02-02T05:32:29.861Z,65.51
2019-02-02T05:36:33.328Z,65.35
2019-02-02T05:40:36.798Z,65.41
2019-02-02T05:44:40.259Z,65.54
2019-02-02T05:48:43.715Z,65.48
2019-02-02T05:52:47.189Z,65.53
2019-02-02T05:56:50.637Z,65.38
2019-02-02T06:00:54.674Z,65.24
2019-02-02T06:04:58.140Z,65.37
2019-02-02T06:09:01.601Z,65.68
2019-02-02T06:13:06.148Z,65.61
2019-02-02T06:17:09.586Z,66.20
2019-02-02T06:21:13.057Z,66.30
2019-02-02T06:25:16.518Z,66.07
2019-02-02T06:29:19.975Z,66.44
2019-02-02T06:33:23.431Z,66.36
2019-02-02T06:37:26.905Z,65.99
2019-02-02T06:41:30.370Z,65.74
2019-02-02T06:45:33.941Z,65.34
2019-02-02T06:49:37.360Z,65.25
2019-02-02T06:53:40.824Z,65.18
2019-02-02T06:57:44.292Z,65.10
2019-02-02T07:01:47.755Z,64.94
2019-02-02T07:05:51.206Z,64.72
2019-02-02T07:09:54.676Z,64.75
2019-02-02T07:13:58.133Z,64.80
2019-02-02T07:18:01.598Z,64.98
2019-02-02T07:22:05.060Z,65.07
2019-02-02T07:26:08.520Z,64.98
2019-02-02T07:30:11.991Z,64.80
2019-02-02T07:34:16.525Z,64.76
2019-02-02T07:38:19.994Z,64.85
2019-02-02T07:42:23.482Z,64.89
2019-02-02T07:46:26.934Z,65.02
2019-02-02T07:50:31.382Z,64.79
2019-02-02T07:54:34.840Z,64.72
2019-02-02T07:58:38.293Z,64.91
2019-02-02T08:02:41.763Z,66.06
2019-02-02T08:06:46.286Z,65.46
2019-02-02T08:10:49.866Z,65.16
2019-02-02T08:14:53.336Z,64.93
2019-02-02T08:18:56.797Z,65.66
2019-02-02T08:23:00.264Z,65.14
2019-02-02T08:27:03.723Z,64.88
2019-02-02T08:31:07.189Z,64.45
2019-02-02T08:35:10.657Z,64.38
2019-02-02T08:39:14.114Z,65.59
2019-02-02T08:43:17.577Z,65.45
2019-02-02T08:47:21.031Z,65.25
2019-02-02T08:51:24.492Z,65.05
2019-02-02T08:55:27.957Z,64.80
2019-02-02T08:59:31.417Z,64.71
2019-02-02T09:03:34.937Z,65.19
2019-02-02T09:07:39.415Z,64.57
2019-02-02T09:11:42.880Z,64.45
2019-02-02T09:15:46.336Z,64.42
2019-02-02T09:19:49.800Z,64.57
2019-02-02T09:23:53.245Z,64.03
2019-02-02T09:27:56.721Z,63.88
2019-02-02T09:32:00.184Z,63.65
2019-02-02T09:36:03.649Z,63.90
2019-02-02T09:40:08.083Z,63.47
2019-02-02T09:44:11.538Z,63.14
2019-02-02T09:48:15.010Z,63.22
2019-02-02T09:52:18.472Z,63.18
2019-02-02T09:56:21.941Z,63.24
2019-02-02T10:00:25.409Z,64.54
2019-02-02T10:04:28.864Z,63.41
2019-02-02T10:08:32.328Z,63.03
2019-02-02T10:12:36.869Z,63.02
2019-02-02T10:16:40.335Z,62.70
2019-02-02T10:20:43.808Z,62.76
2019-02-02T10:24:47.263Z,62.65
2019-02-02T10:28:50.731Z,62.58
2019-02-02T10:32:54.195Z,63.63
2019-02-02T10:36:57.660Z,62.91
2019-02-02T10:41:01.126Z,62.65
2019-02-02T10:45:04.573Z,62.78
2019-02-02T10:49:08.039Z,62.46
2019-02-02T10:53:11.500Z,61.77
2019-02-02T10:57:14.971Z,60.67
2019-02-02T11:01:18.453Z,60.32
2019-02-02T11:05:22.025Z,59.42
2019-02-02T11:09:25.599Z,60.40
2019-02-02T11:13:29.058Z,60.66
2019-02-02T11:17:32.675Z,60.58
2019-02-02T11:21:36.076Z,60.66
2019-02-02T11:25:39.802Z,60.34
2019-02-02T11:29:43.330Z,59.63
2019-02-02T11:33:46.836Z,59.45
2019-02-02T11:37:50.302Z,59.47
2019-02-02T11:41:53.765Z,58.74
2019-02-02T11:45:57.223Z,58.46
2019-02-02T11:50:00.764Z,57.94
2019-02-02T11:54:04.224Z,57.43
2019-02-02T11:58:07.692Z,57.38
2019-02-02T12:02:14.515Z,57.36
2019-02-02T12:06:16.319Z,57.65
2019-02-02T12:10:19.781Z,57.37
2019-02-02T12:14:23.252Z,57.45
2019-02-02T12:18:26.717Z,57.11
2019-02-02T12:22:30.178Z,57.18
2019-02-02T12:26:33.647Z,56.96
2019-02-02T12:30:37.108Z,56.82
2019-02-02T12:34:40.579Z,56.71
2019-02-02T12:38:44.040Z,56.43
2019-02-02T12:42:47.489Z,56.29
2019-02-02T12:46:50.949Z,56.23
2019-02-02T12:50:54.408Z,55.97
2019-02-02T12:54:57.871Z,55.76
2019-02-02T12:59:01.342Z,56.04
2019-02-02T13:03:04.795Z,56.00
2019-02-02T13:07:08.252Z,56.27
2019-02-02T13:11:11.719Z,56.01
2019-02-02T13:15:15.186Z,56.12
2019-02-02T13:19:18.646Z,57.44
2019-02-02T13:23:22.106Z,58.05
2019-02-02T13:27:25.611Z,58.53
2019-02-02T13:31:29.026Z,58.95
2019-02-02T13:35:32.485Z,58.92
2019-02-02T13:39:35.960Z,58.84
2019-02-02T13:43:39.416Z,58.19
2019-02-02T13:47:42.892Z,57.58
2019-02-02T13:51:47.319Z,58.77
2019-02-02T13:55:50.790Z,60.08
2019-02-02T13:59:54.312Z,60.19
2019-02-02T14:03:57.771Z,59.76
2019-02-02T14:08:01.241Z,59.88
2019-02-02T14:12:04.703Z,59.66
2019-02-02T14:16:08.172Z,59.55
2019-02-02T14:20:11.626Z,59.27
2019-02-02T14:24:15.102Z,59.05
2019-02-02T14:28:27.988Z,59.15
2019-02-02T14:32:23.745Z,59.36
2019-02-02T14:36:27.212Z,59.08
2019-02-02T14:40:30.674Z,58.93
2019-02-02T14:44:34.149Z,58.83
2019-02-02T14:48:37.603Z,59.03
2019-02-02T14:52:41.070Z,58.95
2019-02-02T14:56:48.017Z,58.67
2019-02-02T15:00:49.688Z,58.63
2019-02-02T15:04:53.157Z,58.60
2019-02-02T15:08:56.618Z,59.26
2019-02-02T15:13:00.091Z,59.16
2019-02-02T15:17:03.540Z,59.21
2019-02-02T15:21:07.600Z,59.49
2019-02-02T15:25:11.035Z,59.45
2019-02-02T15:29:14.496Z,59.38
2019-02-02T15:33:17.963Z,59.35
2019-02-02T15:37:21.420Z,59.63
2019-02-02T15:41:24.870Z,59.41
2019-02-02T15:45:28.340Z,59.47
2019-02-02T15:49:31.803Z,59.65
2019-02-02T15:53:35.265Z,59.81
2019-02-02T15:57:38.725Z,59.81
2019-02-02T16:01:42.177Z,60.10
2019-02-02T16:05:45.637Z,60.29
2019-02-02T16:09:49.091Z,60.54
2019-02-02T16:13:52.555Z,60.61
2019-02-02T16:17:56.011Z,60.60
2019-02-02T16:21:59.461Z,60.15
2019-02-02T16:26:02.928Z,60.29
2019-02-02T16:30:06.404Z,60.39
2019-02-02T16:34:09.874Z,60.54
2019-02-02T16:38:14.404Z,60.67
2019-02-02T16:42:18.934Z,60.76
2019-02-02T16:46:22.395Z,60.98
2019-02-02T16:50:25.860Z,60.93
2019-02-02T16:54:29.331Z,61.06
2019-02-02T16:58:32.796Z,61.29
2019-02-02T17:02:36.247Z,60.96
2019-02-02T17:06:39.718Z,61.00
2019-02-02T17:10:43.182Z,61.14
2019-02-02T17:14:46.651Z,61.37
2019-02-02T17:18:50.104Z,61.54
2019-02-02T17:22:53.574Z,61.24
2019-02-02T17:26:57.035Z,61.37
2019-02-02T17:31:00.497Z,60.81
2019-02-02T17:35:04.942Z,61.38
2019-02-02T17:39:08.389Z,61.73
2019-02-02T17:43:12.024Z,61.45
2019-02-02T17:47:15.493Z,62.16
2019-02-02T17:51:19.059Z,62.61
2019-02-02T17:55:22.501Z,62.66
2019-02-02T17:59:26.085Z,62.87
2019-02-02T18:03:30.617Z,63.08
2019-02-02T18:07:34.084Z,63.44
2019-02-02T18:11:37.551Z,63.68
2019-02-02T18:15:41.019Z,63.79
2019-02-02T18:19:44.471Z,63.82
2019-02-02T18:23:47.938Z,63.81
2019-02-02T18:27:51.410Z,63.40
2019-02-02T18:31:54.889Z,63.55
2019-02-02T18:35:58.382Z,64.22
2019-02-02T18:40:01.837Z,64.86
2019-02-02T18:44:05.320Z,65.01
2019-02-02T18:48:08.798Z,65.13
2019-02-02T18:52:12.264Z,65.17
2019-02-02T18:56:15.731Z,65.19
2019-02-02T19:00:19.186Z,65.87
2019-02-02T19:04:22.648Z,66.76
2019-02-02T19:08:26.115Z,67.31
2019-02-02T19:12:29.600Z,67.37
2019-02-02T19:16:33.077Z,67.44
2019-02-02T19:20:36.519Z,67.22
2019-02-02T19:24:39.987Z,67.01
2019-02-02T19:28:43.457Z,67.03
2019-02-02T19:32:46.950Z,67.08
2019-02-02T19:36:50.412Z,67.43
2019-02-02T19:40:53.876Z,67.62
2019-02-02T19:44:57.345Z,67.68
2019-02-02T19:49:00.816Z,67.38
2019-02-02T19:53:04.329Z,67.35
2019-02-02T19:57:07.841Z,67.78
2019-02-02T20:01:11.296Z,67.55
2019-02-02T20:05:14.768Z,67.36
2019-02-02T20:09:18.256Z,67.41
2019-02-02T20:13:21.726Z,67.52
2019-02-02T20:17:25.190Z,67.91
2019-02-02T20:21:28.713Z,68.20
2019-02-02T20:25:32.182Z,68.21
2019-02-02T20:29:35.649Z,68.23
2019-02-02T20:33:39.121Z,68.14
2019-02-02T20:37:42.586Z,68.37
2019-02-02T20:41:46.041Z,68.33
2019-02-02T20:45:50.317Z,68.09
2019-02-02T20:49:53.816Z,68.17
2019-02-02T20:53:57.260Z,68.34
2019-02-02T20:58:00.738Z,68.33
2019-02-02T21:02:04.190Z,68.28
2019-02-02T21:06:07.676Z,68.39
2019-02-02T21:10:11.129Z,70.72
2019-02-02T21:14:14.773Z,67.19
2019-02-02T21:18:18.231Z,67.23
2019-02-02T21:22:21.696Z,67.37
2019-02-02T21:26:25.157Z,67.40
2019-02-02T21:30:28.643Z,67.78
2019-02-02T21:34:32.091Z,67.79
2019-02-02T21:38:35.554Z,67.77
2019-02-02T21:42:39.400Z,67.82
2019-02-02T21:46:42.869Z,67.98
2019-02-02T21:50:46.333Z,68.04
2019-02-02T21:54:49.797Z,68.15
2019-02-02T21:58:53.257Z,68.30
2019-02-02T22:02:56.720Z,68.43
2019-02-02T22:07:00.192Z,68.50
2019-02-02T22:11:03.942Z,68.33
2019-02-02T22:15:07.410Z,68.34
2019-02-02T22:19:10.871Z,68.37
2019-02-02T22:23:14.361Z,68.39
2019-02-02T22:27:17.825Z,68.42
2019-02-02T22:31:21.289Z,68.33
2019-02-02T22:35:24.759Z,68.41
2019-02-02T22:39:28.211Z,68.19
2019-02-02T22:43:31.684Z,68.24
2019-02-02T22:47:35.139Z,68.34
2019-02-02T22:51:38.611Z,68.83
2019-02-02T22:55:42.091Z,68.98
2019-02-02T22:59:47.797Z,69.25
2019-02-02T23:03:50.698Z,69.36
2019-02-02T23:07:54.160Z,69.25
2019-02-02T23:11:57.625Z,69.11
2019-02-02T23:16:01.093Z,68.88
2019-02-02T23:20:04.545Z,68.36
2019-02-02T23:24:08.019Z,68.07
2019-02-02T23:28:11.489Z,68.00
2019-02-02T23:32:14.961Z,67.23
2019-02-02T23:36:18.429Z,66.20
2019-02-02T23:40:21.877Z,66.14
2019-02-02T23:44:25.382Z,65.85
2019-02-02T23:48:28.823Z,65.60
2019-02-02T23:52:32.291Z,65.36
2019-02-02T23:56:35.754Z,65.06
